Zao Galaxy — V7YK9 — position and weather

sailwx.info

Track history (hours):
 
Tides and Currents Weather Stations Pressure Air Temp Water Temp Dewpoint Dewpoint Depression Visibility Wind Speed Wind Dir Waves Ship Positions

Zao Galaxy

Last reported at 2018-May-20 22:38 UTC. Time now 2018-May-22 10:17 UTC.
Position N 01°30' E 103°08'.

Length 159 m; draft 8 m.

Type: Ship (hazmat cat B). MMSI: 538004682.

Date/timePositionNaut miles runAvg speedWind from/ knotsBaromVisibWave heightAir tempDewpointWater temp
2018-May-20 22:38N 01°30' E 103°08'416.6
2018-May-20 22:24N 01°27' E 103°11'716.3
2018-May-20 22:00N 01°23' E 103°16'816.0
2018-May-20 21:30N 01°17' E 103°22'714.6
2018-May-20 21:00N 01°14' E 103°28'714.9
2018-May-20 20:30N 01°12' E 103°35'611.6
2018-May-20 20:00N 01°11' E 103°41'2 4.1
2018-May-20 19:31N 01°10' E 103°43'0 0.1
2018-May-20 19:00N 01°10' E 103°43'0 0.1
2018-May-20 18:31N 01°10' E 103°43'0 0.1
2018-May-20 17:58N 01°10' E 103°43'0 0.0
2018-May-20 17:30N 01°10' E 103°43'0 0.1
2018-May-20 17:00N 01°10' E 103°43'0 0.0
2018-May-20 16:30N 01°10' E 103°43'0 0.2
2018-May-20 16:01N 01°11' E 103°43'1 2.1
2018-May-20 15:30N 01°11' E 103°42'2 5.0
2018-May-20 15:00N 01°12' E 103°40'3 6.6
2018-May-20 14:30N 01°14' E 103°42'1 2.1
2018-May-20 14:00N 01°15' E 103°42'0 0.0
2018-May-20 13:25N 01°15' E 103°42'0 0.0
2018-May-20 12:55N 01°15' E 103°42'0 0.0
2018-May-20 12:28N 01°15' E 103°42'0 0.0
2018-May-20 11:52N 01°15' E 103°42'0 0.0
2018-May-20 11:25N 01°15' E 103°42'0 0.0
2018-May-20 10:57N 01°15' E 103°42'0 0.0
2018-May-20 10:30N 01°15' E 103°42'0 0.0
2018-May-20 09:48N 01°15' E 103°42'0 0.0
2018-May-20 09:25N 01°15' E 103°42'0 0.0
2018-May-20 08:55N 01°15' E 103°42'0 0.0
2018-May-20 08:19N 01°15' E 103°42'0 0.0
2018-May-20 07:55N 01°15' E 103°42'0 0.0
2018-May-20 07:27N 01°15' E 103°42'0 0.0
2018-May-20 06:58N 01°15' E 103°42'0 0.0
2018-May-20 06:24N 01°15' E 103°42'0 0.0
2018-May-20 05:58N 01°15' E 103°42'0 0.0
2018-May-20 05:22N 01°15' E 103°42'0 0.0
2018-May-20 04:58N 01°15' E 103°42'0 0.0
2018-May-20 04:30N 01°15' E 103°42'0 0.0
2018-May-20 04:00N 01°15' E 103°42'0 0.0
2018-May-20 03:24N 01°15' E 103°42'0 0.0
2018-May-20 02:55N 01°15' E 103°42'0 0.0
2018-May-20 02:07N 01°15' E 103°42'0 0.0
2018-May-20 01:55N 01°15' E 103°42'0 0.0
2018-May-20 00:46N 01°15' E 103°42'0 0.0
2018-May-20 00:24N 01°15' E 103°42'0 0.0
2018-May-19 23:28N 01°15' E 103°42'0 0.0
2018-May-19 22:37N 01°15' E 103°42'0 0.0
2018-May-19 22:28N 01°15' E 103°42'0 0.0
2018-May-19 21:58N 01°15' E 103°42'0 0.0
2018-May-19 21:22N 01°15' E 103°42'0 0.0
2018-May-19 20:36N 01°15' E 103°42'0 0.0
2018-May-19 20:30N 01°15' E 103°42'0 0.0
2018-May-19 20:00N 01°15' E 103°42'0 0.0
2018-May-19 19:28N 01°15' E 103°42'0 0.0
2018-May-19 18:58N 01°15' E 103°42'0 0.0
2018-May-19 18:28N 01°15' E 103°42'0 0.0
2018-May-19 17:55N 01°15' E 103°42'0 0.0
2018-May-19 17:24N 01°15' E 103°42'0 0.0
2018-May-19 16:58N 01°15' E 103°42'0 0.0
2018-May-19 16:30N 01°15' E 103°42'0 0.0
2018-May-19 15:55N 01°15' E 103°42'0 0.0
2018-May-19 15:16N 01°15' E 103°42'0 0.0
2018-May-19 15:00N 01°15' E 103°42'0 0.0
2018-May-19 14:21N 01°15' E 103°42'0 0.0
2018-May-19 13:58N 01°15' E 103°42'0 0.0
2018-May-19 13:28N 01°15' E 103°42'0 0.0
2018-May-19 12:51N 01°15' E 103°42'0 0.0
2018-May-19 12:10N 01°15' E 103°42'0 0.0
2018-May-19 12:00N 01°15' E 103°42'0 0.0
2018-May-19 10:33N 01°15' E 103°42'0 0.0
2018-May-19 10:28N 01°15' E 103°42'0 0.3
2018-May-19 10:00N 01°15' E 103°42'1 2.9
2018-May-19 09:30N 01°14' E 103°42'1 2.6
2018-May-19 08:57N 01°12' E 103°42'0 0.0
2018-May-19 08:30N 01°12' E 103°42'1 2.1
2018-May-19 08:00N 01°13' E 103°41'510.0
2018-May-19 07:30N 01°17' E 103°44'1 1.4
2018-May-19 07:00N 01°18' E 103°44'0 0.0
2018-May-19 06:30N 01°18' E 103°44'0 0.0
2018-May-19 06:00N 01°18' E 103°44'0 0.0
2018-May-19 05:30N 01°18' E 103°44'0 0.0
2018-May-19 04:57N 01°18' E 103°44'0 0.0
2018-May-19 04:30N 01°18' E 103°44'0 0.0
2018-May-19 04:00N 01°18' E 103°44'0 0.0
2018-May-19 03:20N 01°18' E 103°44'0 0.0
2018-May-19 03:00N 01°18' E 103°44'0 0.0
2018-May-19 02:30N 01°18' E 103°44'0 0.0
2018-May-19 01:57N 01°18' E 103°44'0 0.0
2018-May-19 01:30N 01°18' E 103°44'0 0.0
2018-May-19 00:57N 01°18' E 103°44'0 0.1
2018-May-19 00:18N 01°18' E 103°44'0 0.1
2018-May-18 23:53N 01°18' E 103°44'0 0.0
2018-May-18 23:27N 01°18' E 103°44'0 0.0
2018-May-18 22:57N 01°18' E 103°44'0 0.0
2018-May-18 22:24N 01°18' E 103°44'0 0.0
2018-May-18 22:00N 01°18' E 103°44'0 0.0
2018-May-18 21:24N 01°18' E 103°44'0 0.0
2018-May-18 21:00N 01°18' E 103°44'0 0.0
2018-May-18 20:21N 01°18' E 103°44'0 0.0
2018-May-18 19:54N 01°18' E 103°44'0 0.0
2018-May-18 19:30N 01°18' E 103°44'0 0.0
2018-May-18 19:01N 01°18' E 103°44'2 3.2
2018-May-18 18:30N 01°17' E 103°45'2 4.3
2018-May-18 18:01N 01°15' E 103°44'4 7.6
2018-May-18 17:31N 01°12' E 103°41'1 1.9
2018-May-18 17:00N 01°11' E 103°42'0 0.0
2018-May-18 16:30N 01°11' E 103°42'0 0.0
2018-May-18 16:00N 01°11' E 103°42'0 0.0
2018-May-18 15:28N 01°11' E 103°42'0 0.1
2018-May-18 14:58N 01°11' E 103°42'0 0.1
2018-May-18 14:28N 01°12' E 103°42'0 0.0
2018-May-18 13:58N 01°12' E 103°42'0 0.0
2018-May-18 13:28N 01°12' E 103°42'0 0.0
2018-May-18 12:48N 01°12' E 103°42'0 0.2
2018-May-18 12:28N 01°11' E 103°42'0 0.2
2018-May-18 11:57N 01°11' E 103°42'0 0.1
2018-May-18 11:25N 01°11' E 103°42'0 0.1
2018-May-18 10:58N 01°11' E 103°42'2 4.0
2018-May-18 10:30N 01°13' E 103°41'3 4.6
2018-May-18 09:56N 01°15' E 103°43'0 0.0
2018-May-18 09:26N 01°15' E 103°43'0 0.0
2018-May-18 08:56N 01°15' E 103°43'0 0.0
2018-May-18 08:11N 01°15' E 103°43'0 0.0
2018-May-18 07:59N 01°15' E 103°43'0 0.0
2018-May-18 07:29N 01°15' E 103°43'0 0.0
2018-May-18 06:56N 01°15' E 103°43'0 0.0
2018-May-18 06:29N 01°15' E 103°43'0 0.0
2018-May-18 05:41N 01°15' E 103°43'0 0.0
2018-May-18 05:29N 01°15' E 103°43'0 0.0
2018-May-18 04:53N 01°15' E 103°43'0 0.0
2018-May-18 04:20N 01°15' E 103°43'0 0.0
2018-May-18 03:59N 01°15' E 103°43'0 0.0
2018-May-18 03:16N 01°15' E 103°43'0 0.0
2018-May-18 02:53N 01°15' E 103°43'0 0.0
2018-May-18 02:14N 01°15' E 103°43'0 0.0
2018-May-18 01:56N 01°15' E 103°43'0 0.0
2018-May-18 00:44N 01°15' E 103°43'0 0.0
2018-May-18 00:26N 01°15' E 103°43'0 0.0
2018-May-17 23:53N 01°15' E 103°43'0 0.0
2018-May-17 23:28N 01°15' E 103°43'0 0.0
2018-May-17 23:00N 01°15' E 103°43'1 1.5
2018-May-17 22:30N 01°15' E 103°43'4 8.6
2018-May-17 22:01N 01°12' E 103°40'1 1.6
2018-May-17 21:29N 01°12' E 103°41'0 0.0
2018-May-17 21:00N 01°12' E 103°41'0 0.0
2018-May-17 20:28N 01°12' E 103°41'0 0.0
2018-May-17 20:00N 01°12' E 103°41'0 0.0
2018-May-17 19:30N 01°12' E 103°41'0 0.0
2018-May-17 19:00N 01°12' E 103°41'0 0.1
2018-May-17 18:29N 01°12' E 103°41'0 0.1
2018-May-17 17:59N 01°12' E 103°41'0 0.0
2018-May-17 17:28N 01°12' E 103°41'0 0.1
2018-May-17 17:00N 01°12' E 103°41'0 0.0
2018-May-17 16:29N 01°12' E 103°41'0 0.0
2018-May-17 16:00N 01°12' E 103°41'0 0.0
2018-May-17 15:29N 01°12' E 103°41'0 0.4
2018-May-17 15:00N 01°12' E 103°41'0 0.1
2018-May-17 14:31N 01°12' E 103°41'0 0.0
2018-May-17 14:00N 01°12' E 103°41'0 0.0
2018-May-17 13:29N 01°12' E 103°41'0 0.1
2018-May-17 13:00N 01°12' E 103°41'0 0.0
2018-May-17 12:30N 01°12' E 103°41'0 0.0
2018-May-17 12:00N 01°12' E 103°41'0 0.0
2018-May-17 11:30N 01°12' E 103°41'0 0.0
2018-May-17 10:59N 01°12' E 103°41'0 0.0
2018-May-17 10:27N 01°12' E 103°41'1 1.5
2018-May-17 10:01N 01°12' E 103°41'5 9.1
2018-May-17 09:30N 01°16' E 103°39'0 0.8
2018-May-17 08:59N 01°17' E 103°39'0 0.0
2018-May-17 08:29N 01°17' E 103°39'0 0.0
2018-May-17 07:59N 01°17' E 103°39'0 0.0
2018-May-17 07:26N 01°17' E 103°39'0 0.0
2018-May-17 06:59N 01°17' E 103°39'0 0.0
2018-May-17 06:29N 01°17' E 103°39'0 0.0
2018-May-17 05:59N 01°17' E 103°39'0 0.0
2018-May-17 05:29N 01°17' E 103°39'0 0.0
2018-May-17 04:59N 01°17' E 103°39'0 0.0
2018-May-17 04:26N 01°17' E 103°39'0 0.0
2018-May-17 03:59N 01°17' E 103°39'0 0.0
2018-May-17 03:29N 01°17' E 103°39'0 0.0
2018-May-17 02:59N 01°17' E 103°39'0 0.0
2018-May-17 02:29N 01°17' E 103°39'0 0.0
2018-May-17 01:59N 01°17' E 103°39'0 0.0
2018-May-17 01:29N 01°17' E 103°39'0 0.0
2018-May-17 00:59N 01°17' E 103°39'0 0.0
2018-May-17 00:28N 01°17' E 103°39'0 0.0
2018-May-16 23:59N 01°17' E 103°39'0 0.0
2018-May-16 23:29N 01°17' E 103°39'0 0.0
2018-May-16 22:59N 01°17' E 103°39'0 0.0
2018-May-16 22:29N 01°17' E 103°39'0 0.0
2018-May-16 21:53N 01°17' E 103°39'0 0.0
2018-May-16 21:29N 01°17' E 103°39'0 0.0
2018-May-16 20:59N 01°17' E 103°39'0 0.0
2018-May-16 20:29N 01°17' E 103°39'0 0.0
2018-May-16 19:59N 01°17' E 103°39'0 0.4
2018-May-16 19:30N 01°17' E 103°39'3 6.1
2018-May-16 19:00N 01°14' E 103°40'4 7.7
2018-May-16 18:30N 01°15' E 103°43'3 5.2
2018-May-16 17:59N 01°18' E 103°45'0 0.0
2018-May-16 17:25N 01°18' E 103°45'0 0.0
2018-May-16 16:58N 01°18' E 103°45'0 0.0
2018-May-16 16:29N 01°18' E 103°45'0 0.0
2018-May-16 15:53N 01°18' E 103°45'0 0.0
2018-May-16 15:10N 01°18' E 103°45'0 0.0
2018-May-16 14:59N 01°18' E 103°45'0 0.0
2018-May-16 14:28N 01°18' E 103°45'0 0.0
2018-May-16 13:47N 01°18' E 103°45'0 0.0
2018-May-16 13:26N 01°18' E 103°45'0 0.0
2018-May-16 13:01N 01°18' E 103°45'0 0.0
2018-May-16 12:23N 01°18' E 103°45'0 0.0
2018-May-16 11:56N 01°18' E 103°45'0 0.0
2018-May-16 11:31N 01°18' E 103°45'0 0.0
2018-May-16 11:01N 01°18' E 103°45'0 0.0
2018-May-16 10:29N 01°18' E 103°45'0 0.0
2018-May-16 09:58N 01°18' E 103°45'0 0.0
2018-May-16 09:28N 01°18' E 103°45'0 0.0
2018-May-16 08:59N 01°18' E 103°45'0 0.0
2018-May-16 08:30N 01°18' E 103°45'0 0.1
2018-May-16 07:58N 01°18' E 103°45'0 0.1
2018-May-16 07:16N 01°18' E 103°45'0 0.0
2018-May-16 07:01N 01°18' E 103°45'0 0.0
2018-May-16 06:22N 01°18' E 103°45'0 0.0
2018-May-16 05:59N 01°18' E 103°45'0 0.0
2018-May-16 05:07N 01°18' E 103°45'0 0.0
2018-May-16 04:38N 01°18' E 103°45'0 0.0
2018-May-16 04:31N 01°18' E 103°45'0 0.0
2018-May-16 03:55N 01°18' E 103°45'0 0.0
2018-May-16 03:29N 01°18' E 103°45'0 0.0
2018-May-16 02:47N 01°18' E 103°45'0 0.0
2018-May-16 02:25N 01°18' E 103°45'0 0.0
2018-May-16 01:59N 01°18' E 103°45'2 4.0
2018-May-16 01:31N 01°16' E 103°46'4 8.6
2018-May-16 01:00N 01°13' E 103°42'1 2.6
2018-May-16 00:28N 01°12' E 103°42'0 0.0
2018-May-15 23:58N 01°12' E 103°42'0 0.0
2018-May-15 23:28N 01°12' E 103°42'0 0.0
2018-May-15 22:59N 01°12' E 103°42'0 0.0
2018-May-15 22:25N 01°12' E 103°42'0 0.0
2018-May-15 21:55N 01°12' E 103°42'0 0.1
2018-May-15 21:29N 01°12' E 103°42'0 0.0
2018-May-15 20:59N 01°12' E 103°42'0 0.0
2018-May-15 20:29N 01°12' E 103°42'0 0.0
2018-May-15 19:58N 01°12' E 103°42'0 0.0
2018-May-15 19:28N 01°12' E 103°42'0 0.0
2018-May-15 18:59N 01°12' E 103°42'0 0.0
2018-May-15 18:29N 01°12' E 103°42'0 0.0
2018-May-15 17:59N 01°12' E 103°42'0 0.1
2018-May-15 17:29N 01°12' E 103°42'0 0.1
2018-May-15 16:56N 01°12' E 103°42'0 0.0
2018-May-15 16:28N 01°12' E 103°42'0 0.0
2018-May-15 15:59N 01°12' E 103°42'0 0.1
2018-May-15 15:28N 01°12' E 103°42'0 0.0
2018-May-15 14:55N 01°12' E 103°42'0 0.0
2018-May-15 14:29N 01°12' E 103°42'0 0.1
2018-May-15 13:58N 01°12' E 103°42'0 0.0
2018-May-15 13:29N 01°12' E 103°42'0 0.2
2018-May-15 12:58N 01°12' E 103°41'0 0.1
2018-May-15 12:25N 01°12' E 103°41'0 0.0
2018-May-15 11:58N 01°12' E 103°41'0 0.0
2018-May-15 11:28N 01°12' E 103°41'0 0.0
2018-May-15 10:58N 01°12' E 103°41'0 0.1
2018-May-15 10:28N 01°12' E 103°41'1 2.5
2018-May-15 10:00N 01°11' E 103°41'510.0
2018-May-15 09:30N 01°10' E 103°45'2 4.5
2018-May-15 09:00N 01°11' E 103°47'2 4.9
2018-May-15 08:30N 01°11' E 103°50'3 6.1
2018-May-15 08:00N 01°13' E 103°53'2 3.8
2018-May-15 07:31N 01°13' E 103°54'4 7.2
2018-May-15 07:00N 01°15' E 103°58'4 8.4
2018-May-15 06:30N 01°16' E 104°02'4 8.4
2018-May-15 06:00N 01°17' E 104°06'4 7.2
2018-May-15 05:30N 01°20' E 104°04'5 8.9
2018-May-15 04:58N 01°24' E 104°00'510.0
2018-May-15 04:30N 01°25' E 103°56'2 4.2
2018-May-15 03:57N 01°26' E 103°54'0 0.0
2018-May-15 03:21N 01°26' E 103°54'0 0.0
2018-May-15 02:57N 01°26' E 103°54'0 0.0
2018-May-15 02:30N 01°26' E 103°54'0 0.0
2018-May-15 01:33N 01°26' E 103°54'0 0.0
2018-May-15 01:24N 01°26' E 103°54'0 0.0
2018-May-15 00:54N 01°26' E 103°54'0 0.0
2018-May-15 00:30N 01°26' E 103°54'0 0.0
2018-May-14 23:48N 01°26' E 103°54'0 0.0
2018-May-14 23:24N 01°26' E 103°54'0 0.0
2018-May-14 22:58N 01°26' E 103°54'0 0.0
2018-May-14 22:21N 01°26' E 103°54'0 0.0
2018-May-14 21:57N 01°26' E 103°54'0 0.0
2018-May-14 21:15N 01°26' E 103°54'0 0.0
2018-May-14 20:57N 01°26' E 103°54'0 0.0
2018-May-14 20:30N 01°26' E 103°54'0 0.0
2018-May-14 19:57N 01°26' E 103°54'0 0.0
2018-May-14 19:13N 01°26' E 103°54'0 0.0
2018-May-14 18:57N 01°26' E 103°54'0 0.0
2018-May-14 18:27N 01°26' E 103°54'0 0.0
2018-May-14 17:51N 01°26' E 103°54'0 0.0
2018-May-14 17:18N 01°26' E 103°54'0 0.0
2018-May-14 16:57N 01°26' E 103°54'0 0.0
2018-May-14 16:21N 01°26' E 103°54'0 0.0
2018-May-14 15:57N 01°26' E 103°54'0 0.0
2018-May-14 15:06N 01°26' E 103°54'0 0.0
2018-May-14 14:57N 01°26' E 103°54'0 0.0
2018-May-14 11:54N 01°26' E 103°54'0 0.0
2018-May-14 10:51N 01°26' E 103°54'0 0.0
2018-May-14 09:21N 01°26' E 103°54'0 0.0
2018-May-14 08:51N 01°26' E 103°54'0 0.0
2018-May-14 08:24N 01°26' E 103°54'0 0.0
2018-May-14 05:51N 01°26' E 103°54'0 0.0
2018-May-14 05:24N 01°26' E 103°54'0 0.1
2018-May-14 04:39N 01°26' E 103°54'0 1.6
2018-May-14 04:30N 01°26' E 103°54'3 6.5
2018-May-14 03:59N 01°24' E 103°57'4 8.0
2018-May-14 03:31N 01°23' E 104°01'5 9.7
2018-May-14 02:59N 01°20' E 104°05'2 4.9
2018-May-14 02:30N 01°19' E 104°07'2 4.8
2018-May-14 01:59N 01°17' E 104°09'6 9.3
2018-May-14 01:23N 01°18' E 104°14'410.7
2018-May-14 00:59N 01°19' E 104°18'4 9.0
2018-May-14 00:29N 01°21' E 104°22'611.8
2018-May-13 23:58N 01°25' E 104°27'611.1
2018-May-13 23:25N 01°29' E 104°32'710.5
2018-May-13 22:45N 01°32' E 104°38'  
Track history (hours):
 
Tides and Currents Weather Stations Pressure Air Temp Water Temp Dewpoint Dewpoint Depression Visibility Wind Speed Wind Dir Waves Ship Positions

Zao Galaxy

Last reported at 2018-May-20 22:38 UTC. Time now 2018-May-22 10:17 UTC.
Position N 01°30' E 103°08'.

Length 159 m; draft 8 m.

Type: Ship (hazmat cat B). MMSI: 538004682.

Date/timePositionNaut miles runAvg speedWind from/ knotsBaromVisibWave heightAir tempDewpointWater temp
2018-May-20 22:38N 01°30' E 103°08'416.6
2018-May-20 22:24N 01°27' E 103°11'716.3
2018-May-20 22:00N 01°23' E 103°16'816.0
2018-May-20 21:30N 01°17' E 103°22'714.6
2018-May-20 21:00N 01°14' E 103°28'714.9
2018-May-20 20:30N 01°12' E 103°35'611.6
2018-May-20 20:00N 01°11' E 103°41'2 4.1
2018-May-20 19:31N 01°10' E 103°43'0 0.1
2018-May-20 19:00N 01°10' E 103°43'0 0.1
2018-May-20 18:31N 01°10' E 103°43'0 0.1
2018-May-20 17:58N 01°10' E 103°43'0 0.0
2018-May-20 17:30N 01°10' E 103°43'0 0.1
2018-May-20 17:00N 01°10' E 103°43'0 0.0
2018-May-20 16:30N 01°10' E 103°43'0 0.2
2018-May-20 16:01N 01°11' E 103°43'1 2.1
2018-May-20 15:30N 01°11' E 103°42'2 5.0
2018-May-20 15:00N 01°12' E 103°40'3 6.6
2018-May-20 14:30N 01°14' E 103°42'1 2.1
2018-May-20 14:00N 01°15' E 103°42'0 0.0
2018-May-20 13:25N 01°15' E 103°42'0 0.0
2018-May-20 12:55N 01°15' E 103°42'0 0.0
2018-May-20 12:28N 01°15' E 103°42'0 0.0
2018-May-20 11:52N 01°15' E 103°42'0 0.0
2018-May-20 11:25N 01°15' E 103°42'0 0.0
2018-May-20 10:57N 01°15' E 103°42'0 0.0
2018-May-20 10:30N 01°15' E 103°42'0 0.0
2018-May-20 09:48N 01°15' E 103°42'0 0.0
2018-May-20 09:25N 01°15' E 103°42'0 0.0
2018-May-20 08:55N 01°15' E 103°42'0 0.0
2018-May-20 08:19N 01°15' E 103°42'0 0.0
2018-May-20 07:55N 01°15' E 103°42'0 0.0
2018-May-20 07:27N 01°15' E 103°42'0 0.0
2018-May-20 06:58N 01°15' E 103°42'0 0.0
2018-May-20 06:24N 01°15' E 103°42'0 0.0
2018-May-20 05:58N 01°15' E 103°42'0 0.0
2018-May-20 05:22N 01°15' E 103°42'0 0.0
2018-May-20 04:58N 01°15' E 103°42'0 0.0
2018-May-20 04:30N 01°15' E 103°42'0 0.0
2018-May-20 04:00N 01°15' E 103°42'0 0.0
2018-May-20 03:24N 01°15' E 103°42'0 0.0
2018-May-20 02:55N 01°15' E 103°42'0 0.0
2018-May-20 02:07N 01°15' E 103°42'0 0.0
2018-May-20 01:55N 01°15' E 103°42'0 0.0
2018-May-20 00:46N 01°15' E 103°42'0 0.0
2018-May-20 00:24N 01°15' E 103°42'0 0.0
2018-May-19 23:28N 01°15' E 103°42'0 0.0
2018-May-19 22:37N 01°15' E 103°42'0 0.0
2018-May-19 22:28N 01°15' E 103°42'0 0.0
2018-May-19 21:58N 01°15' E 103°42'0 0.0
2018-May-19 21:22N 01°15' E 103°42'0 0.0
2018-May-19 20:36N 01°15' E 103°42'0 0.0
2018-May-19 20:30N 01°15' E 103°42'0 0.0
2018-May-19 20:00N 01°15' E 103°42'0 0.0
2018-May-19 19:28N 01°15' E 103°42'0 0.0
2018-May-19 18:58N 01°15' E 103°42'0 0.0
2018-May-19 18:28N 01°15' E 103°42'0 0.0
2018-May-19 17:55N 01°15' E 103°42'0 0.0
2018-May-19 17:24N 01°15' E 103°42'0 0.0
2018-May-19 16:58N 01°15' E 103°42'0 0.0
2018-May-19 16:30N 01°15' E 103°42'0 0.0
2018-May-19 15:55N 01°15' E 103°42'0 0.0
2018-May-19 15:16N 01°15' E 103°42'0 0.0
2018-May-19 15:00N 01°15' E 103°42'0 0.0
2018-May-19 14:21N 01°15' E 103°42'0 0.0
2018-May-19 13:58N 01°15' E 103°42'0 0.0
2018-May-19 13:28N 01°15' E 103°42'0 0.0
2018-May-19 12:51N 01°15' E 103°42'0 0.0
2018-May-19 12:10N 01°15' E 103°42'0 0.0
2018-May-19 12:00N 01°15' E 103°42'0 0.0
2018-May-19 10:33N 01°15' E 103°42'0 0.0
2018-May-19 10:28N 01°15' E 103°42'0 0.3
2018-May-19 10:00N 01°15' E 103°42'1 2.9
2018-May-19 09:30N 01°14' E 103°42'1 2.6
2018-May-19 08:57N 01°12' E 103°42'0 0.0
2018-May-19 08:30N 01°12' E 103°42'1 2.1
2018-May-19 08:00N 01°13' E 103°41'510.0
2018-May-19 07:30N 01°17' E 103°44'1 1.4
2018-May-19 07:00N 01°18' E 103°44'0 0.0
2018-May-19 06:30N 01°18' E 103°44'0 0.0
2018-May-19 06:00N 01°18' E 103°44'0 0.0
2018-May-19 05:30N 01°18' E 103°44'0 0.0
2018-May-19 04:57N 01°18' E 103°44'0 0.0
2018-May-19 04:30N 01°18' E 103°44'0 0.0
2018-May-19 04:00N 01°18' E 103°44'0 0.0
2018-May-19 03:20N 01°18' E 103°44'0 0.0
2018-May-19 03:00N 01°18' E 103°44'0 0.0
2018-May-19 02:30N 01°18' E 103°44'0 0.0
2018-May-19 01:57N 01°18' E 103°44'0 0.0
2018-May-19 01:30N 01°18' E 103°44'0 0.0
2018-May-19 00:57N 01°18' E 103°44'0 0.1
2018-May-19 00:18N 01°18' E 103°44'0 0.1
2018-May-18 23:53N 01°18' E 103°44'0 0.0
2018-May-18 23:27N 01°18' E 103°44'0 0.0
2018-May-18 22:57N 01°18' E 103°44'0 0.0
2018-May-18 22:24N 01°18' E 103°44'0 0.0
2018-May-18 22:00N 01°18' E 103°44'0 0.0
2018-May-18 21:24N 01°18' E 103°44'0 0.0
2018-May-18 21:00N 01°18' E 103°44'0 0.0
2018-May-18 20:21N 01°18' E 103°44'0 0.0
2018-May-18 19:54N 01°18' E 103°44'0 0.0
2018-May-18 19:30N 01°18' E 103°44'0 0.0
2018-May-18 19:01N 01°18' E 103°44'2 3.2
2018-May-18 18:30N 01°17' E 103°45'2 4.3
2018-May-18 18:01N 01°15' E 103°44'4 7.6
2018-May-18 17:31N 01°12' E 103°41'1 1.9
2018-May-18 17:00N 01°11' E 103°42'0 0.0
2018-May-18 16:30N 01°11' E 103°42'0 0.0
2018-May-18 16:00N 01°11' E 103°42'0 0.0
2018-May-18 15:28N 01°11' E 103°42'0 0.1
2018-May-18 14:58N 01°11' E 103°42'0 0.1
2018-May-18 14:28N 01°12' E 103°42'0 0.0
2018-May-18 13:58N 01°12' E 103°42'0 0.0
2018-May-18 13:28N 01°12' E 103°42'0 0.0
2018-May-18 12:48N 01°12' E 103°42'0 0.2
2018-May-18 12:28N 01°11' E 103°42'0 0.2
2018-May-18 11:57N 01°11' E 103°42'0 0.1
2018-May-18 11:25N 01°11' E 103°42'0 0.1
2018-May-18 10:58N 01°11' E 103°42'2 4.0
2018-May-18 10:30N 01°13' E 103°41'3 4.6
2018-May-18 09:56N 01°15' E 103°43'0 0.0
2018-May-18 09:26N 01°15' E 103°43'0 0.0
2018-May-18 08:56N 01°15' E 103°43'0 0.0
2018-May-18 08:11N 01°15' E 103°43'0 0.0
2018-May-18 07:59N 01°15' E 103°43'0 0.0
2018-May-18 07:29N 01°15' E 103°43'0 0.0
2018-May-18 06:56N 01°15' E 103°43'0 0.0
2018-May-18 06:29N 01°15' E 103°43'0 0.0
2018-May-18 05:41N 01°15' E 103°43'0 0.0
2018-May-18 05:29N 01°15' E 103°43'0 0.0
2018-May-18 04:53N 01°15' E 103°43'0 0.0
2018-May-18 04:20N 01°15' E 103°43'0 0.0
2018-May-18 03:59N 01°15' E 103°43'0 0.0
2018-May-18 03:16N 01°15' E 103°43'0 0.0
2018-May-18 02:53N 01°15' E 103°43'0 0.0
2018-May-18 02:14N 01°15' E 103°43'0 0.0
2018-May-18 01:56N 01°15' E 103°43'0 0.0
2018-May-18 00:44N 01°15' E 103°43'0 0.0
2018-May-18 00:26N 01°15' E 103°43'0 0.0
2018-May-17 23:53N 01°15' E 103°43'0 0.0
2018-May-17 23:28N 01°15' E 103°43'0 0.0
2018-May-17 23:00N 01°15' E 103°43'1 1.5
2018-May-17 22:30N 01°15' E 103°43'4 8.6
2018-May-17 22:01N 01°12' E 103°40'1 1.6
2018-May-17 21:29N 01°12' E 103°41'0 0.0
2018-May-17 21:00N 01°12' E 103°41'0 0.0
2018-May-17 20:28N 01°12' E 103°41'0 0.0
2018-May-17 20:00N 01°12' E 103°41'0 0.0
2018-May-17 19:30N 01°12' E 103°41'0 0.0
2018-May-17 19:00N 01°12' E 103°41'0 0.1
2018-May-17 18:29N 01°12' E 103°41'0 0.1
2018-May-17 17:59N 01°12' E 103°41'0 0.0
2018-May-17 17:28N 01°12' E 103°41'0 0.1
2018-May-17 17:00N 01°12' E 103°41'0 0.0
2018-May-17 16:29N 01°12' E 103°41'0 0.0
2018-May-17 16:00N 01°12' E 103°41'0 0.0
2018-May-17 15:29N 01°12' E 103°41'0 0.4
2018-May-17 15:00N 01°12' E 103°41'0 0.1
2018-May-17 14:31N 01°12' E 103°41'0 0.0
2018-May-17 14:00N 01°12' E 103°41'0 0.0
2018-May-17 13:29N 01°12' E 103°41'0 0.1
2018-May-17 13:00N 01°12' E 103°41'0 0.0
2018-May-17 12:30N 01°12' E 103°41'0 0.0
2018-May-17 12:00N 01°12' E 103°41'0 0.0
2018-May-17 11:30N 01°12' E 103°41'0 0.0
2018-May-17 10:59N 01°12' E 103°41'0 0.0
2018-May-17 10:27N 01°12' E 103°41'1 1.5
2018-May-17 10:01N 01°12' E 103°41'5 9.1
2018-May-17 09:30N 01°16' E 103°39'0 0.8
2018-May-17 08:59N 01°17' E 103°39'0 0.0
2018-May-17 08:29N 01°17' E 103°39'0 0.0
2018-May-17 07:59N 01°17' E 103°39'0 0.0
2018-May-17 07:26N 01°17' E 103°39'0 0.0
2018-May-17 06:59N 01°17' E 103°39'0 0.0
2018-May-17 06:29N 01°17' E 103°39'0 0.0
2018-May-17 05:59N 01°17' E 103°39'0 0.0
2018-May-17 05:29N 01°17' E 103°39'0 0.0
2018-May-17 04:59N 01°17' E 103°39'0 0.0
2018-May-17 04:26N 01°17' E 103°39'0 0.0
2018-May-17 03:59N 01°17' E 103°39'0 0.0
2018-May-17 03:29N 01°17' E 103°39'0 0.0
2018-May-17 02:59N 01°17' E 103°39'0 0.0
2018-May-17 02:29N 01°17' E 103°39'0 0.0
2018-May-17 01:59N 01°17' E 103°39'0 0.0
2018-May-17 01:29N 01°17' E 103°39'0 0.0
2018-May-17 00:59N 01°17' E 103°39'0 0.0
2018-May-17 00:28N 01°17' E 103°39'0 0.0
2018-May-16 23:59N 01°17' E 103°39'0 0.0
2018-May-16 23:29N 01°17' E 103°39'0 0.0
2018-May-16 22:59N 01°17' E 103°39'0 0.0
2018-May-16 22:29N 01°17' E 103°39'0 0.0
2018-May-16 21:53N 01°17' E 103°39'0 0.0
2018-May-16 21:29N 01°17' E 103°39'0 0.0
2018-May-16 20:59N 01°17' E 103°39'0 0.0
2018-May-16 20:29N 01°17' E 103°39'0 0.0
2018-May-16 19:59N 01°17' E 103°39'0 0.4
2018-May-16 19:30N 01°17' E 103°39'3 6.1
2018-May-16 19:00N 01°14' E 103°40'4 7.7
2018-May-16 18:30N 01°15' E 103°43'3 5.2
2018-May-16 17:59N 01°18' E 103°45'0 0.0
2018-May-16 17:25N 01°18' E 103°45'0 0.0
2018-May-16 16:58N 01°18' E 103°45'0 0.0
2018-May-16 16:29N 01°18' E 103°45'0 0.0
2018-May-16 15:53N 01°18' E 103°45'0 0.0
2018-May-16 15:10N 01°18' E 103°45'0 0.0
2018-May-16 14:59N 01°18' E 103°45'0 0.0
2018-May-16 14:28N 01°18' E 103°45'0 0.0
2018-May-16 13:47N 01°18' E 103°45'0 0.0
2018-May-16 13:26N 01°18' E 103°45'0 0.0
2018-May-16 13:01N 01°18' E 103°45'0 0.0
2018-May-16 12:23N 01°18' E 103°45'0 0.0
2018-May-16 11:56N 01°18' E 103°45'0 0.0
2018-May-16 11:31N 01°18' E 103°45'0 0.0
2018-May-16 11:01N 01°18' E 103°45'0 0.0
2018-May-16 10:29N 01°18' E 103°45'0 0.0
2018-May-16 09:58N 01°18' E 103°45'0 0.0
2018-May-16 09:28N 01°18' E 103°45'0 0.0
2018-May-16 08:59N 01°18' E 103°45'0 0.0
2018-May-16 08:30N 01°18' E 103°45'0 0.1
2018-May-16 07:58N 01°18' E 103°45'0 0.1
2018-May-16 07:16N 01°18' E 103°45'0 0.0
2018-May-16 07:01N 01°18' E 103°45'0 0.0
2018-May-16 06:22N 01°18' E 103°45'0 0.0
2018-May-16 05:59N 01°18' E 103°45'0 0.0
2018-May-16 05:07N 01°18' E 103°45'0 0.0
2018-May-16 04:38N 01°18' E 103°45'0 0.0
2018-May-16 04:31N 01°18' E 103°45'0 0.0
2018-May-16 03:55N 01°18' E 103°45'0 0.0
2018-May-16 03:29N 01°18' E 103°45'0 0.0
2018-May-16 02:47N 01°18' E 103°45'0 0.0
2018-May-16 02:25N 01°18' E 103°45'0 0.0
2018-May-16 01:59N 01°18' E 103°45'2 4.0
2018-May-16 01:31N 01°16' E 103°46'4 8.6
2018-May-16 01:00N 01°13' E 103°42'1 2.6
2018-May-16 00:28N 01°12' E 103°42'0 0.0
2018-May-15 23:58N 01°12' E 103°42'0 0.0
2018-May-15 23:28N 01°12' E 103°42'0 0.0
2018-May-15 22:59N 01°12' E 103°42'0 0.0
2018-May-15 22:25N 01°12' E 103°42'0 0.0
2018-May-15 21:55N 01°12' E 103°42'0 0.1
2018-May-15 21:29N 01°12' E 103°42'0 0.0
2018-May-15 20:59N 01°12' E 103°42'0 0.0
2018-May-15 20:29N 01°12' E 103°42'0 0.0
2018-May-15 19:58N 01°12' E 103°42'0 0.0
2018-May-15 19:28N 01°12' E 103°42'0 0.0
2018-May-15 18:59N 01°12' E 103°42'0 0.0
2018-May-15 18:29N 01°12' E 103°42'0 0.0
2018-May-15 17:59N 01°12' E 103°42'0 0.1
2018-May-15 17:29N 01°12' E 103°42'0 0.1
2018-May-15 16:56N 01°12' E 103°42'0 0.0
2018-May-15 16:28N 01°12' E 103°42'0 0.0
2018-May-15 15:59N 01°12' E 103°42'0 0.1
2018-May-15 15:28N 01°12' E 103°42'0 0.0
2018-May-15 14:55N 01°12' E 103°42'0 0.0
2018-May-15 14:29N 01°12' E 103°42'0 0.1
2018-May-15 13:58N 01°12' E 103°42'0 0.0
2018-May-15 13:29N 01°12' E 103°42'0 0.2
2018-May-15 12:58N 01°12' E 103°41'0 0.1
2018-May-15 12:25N 01°12' E 103°41'0 0.0
2018-May-15 11:58N 01°12' E 103°41'0 0.0
2018-May-15 11:28N 01°12' E 103°41'0 0.0
2018-May-15 10:58N 01°12' E 103°41'0 0.1
2018-May-15 10:28N 01°12' E 103°41'1 2.5
2018-May-15 10:00N 01°11' E 103°41'510.0
2018-May-15 09:30N 01°10' E 103°45'2 4.5
2018-May-15 09:00N 01°11' E 103°47'2 4.9
2018-May-15 08:30N 01°11' E 103°50'3 6.1
2018-May-15 08:00N 01°13' E 103°53'2 3.8
2018-May-15 07:31N 01°13' E 103°54'4 7.2
2018-May-15 07:00N 01°15' E 103°58'4 8.4
2018-May-15 06:30N 01°16' E 104°02'4 8.4
2018-May-15 06:00N 01°17' E 104°06'4 7.2
2018-May-15 05:30N 01°20' E 104°04'5 8.9
2018-May-15 04:58N 01°24' E 104°00'510.0
2018-May-15 04:30N 01°25' E 103°56'2 4.2
2018-May-15 03:57N 01°26' E 103°54'0 0.0
2018-May-15 03:21N 01°26' E 103°54'0 0.0
2018-May-15 02:57N 01°26' E 103°54'0 0.0
2018-May-15 02:30N 01°26' E 103°54'0 0.0
2018-May-15 01:33N 01°26' E 103°54'0 0.0
2018-May-15 01:24N 01°26' E 103°54'0 0.0
2018-May-15 00:54N 01°26' E 103°54'0 0.0
2018-May-15 00:30N 01°26' E 103°54'0 0.0
2018-May-14 23:48N 01°26' E 103°54'0 0.0
2018-May-14 23:24N 01°26' E 103°54'0 0.0
2018-May-14 22:58N 01°26' E 103°54'0 0.0
2018-May-14 22:21N 01°26' E 103°54'0 0.0
2018-May-14 21:57N 01°26' E 103°54'0 0.0
2018-May-14 21:15N 01°26' E 103°54'0 0.0
2018-May-14 20:57N 01°26' E 103°54'0 0.0
2018-May-14 20:30N 01°26' E 103°54'0 0.0
2018-May-14 19:57N 01°26' E 103°54'0 0.0
2018-May-14 19:13N 01°26' E 103°54'0 0.0
2018-May-14 18:57N 01°26' E 103°54'0 0.0
2018-May-14 18:27N 01°26' E 103°54'0 0.0
2018-May-14 17:51N 01°26' E 103°54'0 0.0
2018-May-14 17:18N 01°26' E 103°54'0 0.0
2018-May-14 16:57N 01°26' E 103°54'0 0.0
2018-May-14 16:21N 01°26' E 103°54'0 0.0
2018-May-14 15:57N 01°26' E 103°54'0 0.0
2018-May-14 15:06N 01°26' E 103°54'0 0.0
2018-May-14 14:57N 01°26' E 103°54'0 0.0
2018-May-14 11:54N 01°26' E 103°54'0 0.0
2018-May-14 10:51N 01°26' E 103°54'0 0.0
2018-May-14 09:21N 01°26' E 103°54'0 0.0
2018-May-14 08:51N 01°26' E 103°54'0 0.0
2018-May-14 08:24N 01°26' E 103°54'0 0.0
2018-May-14 05:51N 01°26' E 103°54'0 0.0
2018-May-14 05:24N 01°26' E 103°54'0 0.1
2018-May-14 04:39N 01°26' E 103°54'0 1.6
2018-May-14 04:30N 01°26' E 103°54'3 6.5
2018-May-14 03:59N 01°24' E 103°57'4 8.0
2018-May-14 03:31N 01°23' E 104°01'5 9.7
2018-May-14 02:59N 01°20' E 104°05'2 4.9
2018-May-14 02:30N 01°19' E 104°07'2 4.8
2018-May-14 01:59N 01°17' E 104°09'6 9.3
2018-May-14 01:23N 01°18' E 104°14'410.7
2018-May-14 00:59N 01°19' E 104°18'4 9.0
2018-May-14 00:29N 01°21' E 104°22'611.8
2018-May-13 23:58N 01°25' E 104°27'611.1
2018-May-13 23:25N 01°29' E 104°32'710.5
2018-May-13 22:45N 01°32' E 104°38'  

Dump ship's entire track history